Time;durP1;ratioP1;P1;durP2;ratioP2;P2;SDS_P1;SDS_P2;PMS_P1;PMS_P2;Temp;Humidity;BMP_temperature;BMP_pressure;BME280_temperature;BME280_humidity;BME280_pressure;Samples;Min_cycle;Max_cycle;Signal;HPM_P1;HPM_P2
2022/07/08 00:02:50;;;;;;;3.33;2.50;;;;;;;;;;5111000;27;20833;-71
2022/07/08 00:05:17;;;;;;;4.35;2.60;;;;;;;;;;5111292;28;20149;-71
2022/07/08 00:07:43;;;;;;;4.03;2.50;;;;;;;;;;5127131;28;20077;-73
2022/07/08 00:10:09;;;;;;;4.13;2.60;;;;;;;;;;5111186;28;20027;-72
2022/07/08 00:12:36;;;;;;;3.65;2.67;;;;;;;;;;5111259;28;20018;-71
2022/07/08 00:15:03;;;;;;;4.45;2.78;;;;;;;;;;5111175;28;20073;-70
2022/07/08 00:17:29;;;;;;;5.10;2.78;;;;;;;;;;5126592;28;20054;-70
2022/07/08 00:20:37;;;;;;;3.10;2.35;;;;;;;;;;5111552;27;20966;-71
2022/07/08 00:23:03;;;;;;;5.68;2.63;;;;;;;;;;5111348;28;20050;-70
2022/07/08 00:25:29;;;;;;;4.35;2.50;;;;;;;;;;5110874;28;20438;-71
2022/07/08 00:27:55;;;;;;;3.63;2.60;;;;;;;;;;5111313;28;20024;-71
2022/07/08 00:31:53;;;;;;;5.15;2.67;;;;;;;;;;5111464;27;20562;-72
2022/07/08 00:35:07;;;;;;;3.97;2.58;;;;;;;;;;5111864;27;20396;-71
2022/07/08 00:37:33;;;;;;;3.67;2.17;;;;;;;;;;5111340;28;20028;-72
2022/07/08 00:41:03;;;;;;;6.65;4.40;;;;;;;;;;5091545;27;20439;-72
2022/07/08 00:43:38;;;;;;;3.90;2.50;;;;;;;;;;5091132;28;20031;-72
2022/07/08 00:46:05;;;;;;;7.22;2.63;;;;;;;;;;5090666;28;20017;-72
2022/07/08 00:54:22;;;;;;;4.78;2.13;;;;;;;;;;5070458;28;20442;-72
2022/07/08 00:56:48;;;;;;;3.03;2.05;;;;;;;;;;5069623;28;20370;-71
2022/07/08 00:59:14;;;;;;;2.70;1.80;;;;;;;;;;5070426;28;20500;-71
2022/07/08 01:04:27;;;;;;;4.57;2.45;;;;;;;;;;5112027;27;20388;-71
2022/07/08 01:06:53;;;;;;;4.22;2.45;;;;;;;;;;5110968;28;20518;-71
2022/07/08 01:11:08;;;;;;;3.78;1.92;;;;;;;;;;5111771;27;20466;-71
2022/07/08 01:15:01;;;;;;;2.45;1.83;;;;;;;;;;5111052;27;20485;-70
2022/07/08 01:19:14;;;;;;;2.45;1.92;;;;;;;;;;5112108;27;20492;-71
2022/07/08 01:21:40;;;;;;;3.13;2.35;;;;;;;;;;5111031;28;20434;-71
2022/07/08 01:24:07;;;;;;;3.47;2.22;;;;;;;;;;5110024;28;20028;-70
2022/07/08 01:26:33;;;;;;;3.15;2.17;;;;;;;;;;5110073;28;20024;-72
2022/07/08 01:28:59;;;;;;;4.40;2.50;;;;;;;;;;5110976;28;20026;-71
2022/07/08 01:33:00;;;;;;;6.72;2.50;;;;;;;;;;5111469;27;20935;-71
2022/07/08 01:37:36;;;;;;;5.40;3.15;;;;;;;;;;5111730;27;20504;-72
2022/07/08 01:40:02;;;;;;;5.32;2.92;;;;;;;;;;5111335;28;20055;-72
2022/07/08 01:43:42;;;;;;;4.80;2.65;;;;;;;;;;5071291;28;20427;-71
2022/07/08 01:46:08;;;;;;;4.45;2.53;;;;;;;;;;5070794;28;20103;-70
2022/07/08 01:48:34;;;;;;;4.65;2.72;;;;;;;;;;5069126;28;20384;-70
2022/07/08 01:51:00;;;;;;;4.22;2.40;;;;;;;;;;5070708;28;20100;-71
2022/07/08 01:53:26;;;;;;;3.03;2.20;;;;;;;;;;5070817;28;20485;-71
2022/07/08 01:59:15;;;;;;;2.88;2.08;;;;;;;;;;5152853;27;20304;-71
2022/07/08 02:01:41;;;;;;;3.47;2.40;;;;;;;;;;5152555;27;20441;-71
2022/07/08 02:04:07;;;;;;;3.92;2.60;;;;;;;;;;5152153;27;20336;-71
2022/07/08 02:08:05;;;;;;;3.00;2.10;;;;;;;;;;5111921;27;20396;-71
2022/07/08 02:13:17;;;;;;;11.73;2.92;;;;;;;;;;5111677;28;20451;-71
2022/07/08 02:15:44;;;;;;;4.53;2.63;;;;;;;;;;5111474;28;20039;-71
2022/07/08 02:19:36;;;;;;;5.07;2.40;;;;;;;;;;5112071;27;20404;-71
2022/07/08 02:22:03;;;;;;;3.45;2.30;;;;;;;;;;5111375;28;20027;-70
2022/07/08 02:24:29;;;;;;;4.43;2.40;;;;;;;;;;5110918;28;20024;-71
2022/07/08 02:26:55;;;;;;;3.17;2.08;;;;;;;;;;5111419;28;20028;-71
2022/07/08 02:30:13;;;;;;;4.20;2.50;;;;;;;;;;5112099;27;20457;-71
2022/07/08 02:32:40;;;;;;;3.67;2.30;;;;;;;;;;5110944;28;20036;-71
2022/07/08 02:35:06;;;;;;;3.88;2.53;;;;;;;;;;5127032;28;20048;-70
2022/07/08 02:37:32;;;;;;;4.00;2.70;;;;;;;;;;5126787;28;20024;-70
2022/07/08 02:39:58;;;;;;;4.85;2.33;;;;;;;;;;5111476;28;20095;-72
2022/07/08 02:42:25;;;;;;;4.20;2.63;;;;;;;;;;5111206;28;20027;-71
2022/07/08 02:46:30;;;;;;;4.70;2.30;;;;;;;;;;5111147;27;20438;-71
2022/07/08 02:48:56;;;;;;;2.97;2.10;;;;;;;;;;5111675;28;20028;-71
2022/07/08 02:55:10;;;;;;;3.53;2.17;;;;;;;;;;5111672;27;20384;-70
2022/07/08 02:59:24;;;;;;;4.43;2.25;;;;;;;;;;5111404;27;20424;-70
2022/07/08 03:01:50;;;;;;;3.15;2.10;;;;;;;;;;5111368;28;20031;-71
2022/07/08 03:04:16;;;;;;;2.83;2.00;;;;;;;;;;5111349;28;20379;-71
2022/07/08 03:06:42;;;;;;;4.68;2.20;;;;;;;;;;5110870;28;20081;-71
2022/07/08 03:10:59;;;;;;;2.97;2.10;;;;;;;;;;5111807;27;20775;-71
2022/07/08 03:13:36;;;;;;;2.85;1.95;;;;;;;;;;5091872;27;20827;-71
2022/07/08 03:16:03;;;;;;;3.83;2.38;;;;;;;;;;5091009;28;20032;-72
2022/07/08 03:20:06;;;;;;;3.72;2.05;;;;;;;;;;5111579;27;20420;-72
2022/07/08 03:22:33;;;;;;;3.67;1.80;;;;;;;;;;5127166;28;20027;-72
2022/07/08 03:25:00;;;;;;;3.15;1.77;;;;;;;;;;5127109;28;20036;-71
2022/07/08 03:27:26;;;;;;;4.70;2.22;;;;;;;;;;5110979;28;20036;-72
2022/07/08 03:29:52;;;;;;;3.42;2.10;;;;;;;;;;5127044;28;20379;-72
2022/07/08 03:32:18;;;;;;;3.55;2.20;;;;;;;;;;5111225;28;20539;-71
2022/07/08 03:38:09;;;;;;;5.10;2.45;;;;;;;;;;5111956;27;20400;-71
2022/07/08 03:43:42;;;;;;;3.33;2.20;;;;;;;;;;5111866;27;20117;-71
2022/07/08 03:49:02;;;;;;;3.97;1.83;;;;;;;;;;5111442;27;20783;-72
2022/07/08 03:51:28;;;;;;;3.08;2.03;;;;;;;;;;5110103;28;20047;-71
2022/07/08 03:56:44;;;;;;;3.38;2.13;;;;;;;;;;5111176;27;20397;-71
2022/07/08 03:59:10;;;;;;;2.78;2.03;;;;;;;;;;5111363;28;20020;-71
2022/07/08 04:01:36;;;;;;;3.78;2.22;;;;;;;;;;5111608;28;20529;-72
2022/07/08 04:04:03;;;;;;;4.03;2.17;;;;;;;;;;5109596;28;20480;-72
2022/07/08 04:06:29;;;;;;;2.42;1.85;;;;;;;;;;5111235;28;20066;-72
2022/07/08 04:08:55;;;;;;;3.85;2.35;;;;;;;;;;5109884;28;20031;-71
2022/07/08 04:11:21;;;;;;;3.42;2.20;;;;;;;;;;5111490;28;20396;-72
2022/07/08 04:13:57;;;;;;;3.92;1.90;;;;;;;;;;5112035;27;20458;-71
2022/07/08 04:18:28;;;;;;;4.10;2.47;;;;;;;;;;5111458;27;20419;-71
2022/07/08 04:22:08;;;;;;;3.20;2.35;;;;;;;;;;5112271;27;20462;-71
2022/07/08 04:24:35;;;;;;;5.70;2.65;;;;;;;;;;5126791;28;20081;-71
2022/07/08 04:27:01;;;;;;;4.38;2.25;;;;;;;;;;5111297;28;20024;-71
2022/07/08 04:30:10;;;;;;;3.05;1.90;;;;;;;;;;5111231;27;20422;-72
2022/07/08 04:32:57;;;;;;;5.07;2.10;;;;;;;;;;5111519;27;20423;-71
2022/07/08 04:35:23;;;;;;;4.30;2.50;;;;;;;;;;5111328;28;20054;-71
2022/07/08 04:40:46;;;;;;;5.32;2.83;;;;;;;;;;5112180;27;20396;-71
2022/07/08 04:43:12;;;;;;;4.28;2.40;;;;;;;;;;5111361;28;20020;-72
2022/07/08 04:45:39;;;;;;;3.50;2.25;;;;;;;;;;5110871;28;20028;-72
2022/07/08 04:50:35;;;;;;;2.38;1.70;;;;;;;;;;5111868;27;20803;-72
2022/07/08 04:54:59;;;;;;;2.42;1.70;;;;;;;;;;5112085;27;20784;-73
2022/07/08 04:57:25;;;;;;;4.65;1.90;;;;;;;;;;5110118;28;20024;-72
2022/07/08 05:02:04;;;;;;;3.08;1.80;;;;;;;;;;5111578;27;20401;-72
2022/07/08 05:04:30;;;;;;;2.97;1.83;;;;;;;;;;5110255;28;20123;-72
2022/07/08 05:07:33;;;;;;;2.67;1.83;;;;;;;;;;5111440;27;20912;-72
2022/07/08 05:11:57;;;;;;;2.78;1.67;;;;;;;;;;5111705;27;20465;-73
2022/07/08 05:14:23;;;;;;;3.05;1.85;;;;;;;;;;5111086;28;20466;-73
2022/07/08 05:17:48;;;;;;;3.63;1.92;;;;;;;;;;5110412;27;20424;-74
2022/07/08 05:20:15;;;;;;;4.07;2.65;;;;;;;;;;5110953;28;20038;-75
2022/07/08 05:22:41;;;;;;;4.65;2.25;;;;;;;;;;5109179;28;20483;-72
2022/07/08 05:25:08;;;;;;;3.70;1.92;;;;;;;;;;5110584;28;20020;-69
2022/07/08 05:27:34;;;;;;;3.47;2.00;;;;;;;;;;5109429;28;20016;-69
2022/07/08 05:31:17;;;;;;;3.72;1.73;;;;;;;;;;5110965;27;20450;-69
2022/07/08 05:37:00;;;;;;;3.35;2.08;;;;;;;;;;5173372;27;20110;-69
2022/07/08 05:39:26;;;;;;;3.20;2.05;;;;;;;;;;5126600;27;20027;-69
2022/07/08 05:41:52;;;;;;;3.10;2.00;;;;;;;;;;5113020;28;20023;-69
2022/07/08 05:44:19;;;;;;;3.28;1.92;;;;;;;;;;5127809;27;20026;-78
2022/07/08 05:46:45;;;;;;;3.42;2.20;;;;;;;;;;5141234;27;20035;-75
2022/07/08 05:49:11;;;;;;;4.05;2.22;;;;;;;;;;5139523;27;20097;-75
2022/07/08 05:51:37;;;;;;;4.63;2.83;;;;;;;;;;5123139;27;20046;-78
2022/07/08 05:54:04;;;;;;;3.90;1.80;;;;;;;;;;5128669;27;20031;-78
2022/07/08 05:56:30;;;;;;;2.22;1.70;;;;;;;;;;5134447;27;20034;-75
2022/07/08 05:58:56;;;;;;;3.03;2.25;;;;;;;;;;5113055;28;20049;-77
2022/07/08 06:01:22;;;;;;;2.97;1.98;;;;;;;;;;5113001;28;20019;-76
2022/07/08 06:04:24;;;;;;;4.18;2.40;;;;;;;;;;5111433;27;20473;-77
2022/07/08 06:06:50;;;;;;;3.95;2.05;;;;;;;;;;5109974;28;20028;-76
2022/07/08 06:09:48;;;;;;;2.50;1.88;;;;;;;;;;5106022;27;20121;-75
2022/07/08 06:12:14;;;;;;;2.83;2.00;;;;;;;;;;5111312;28;20032;-75
2022/07/08 06:14:40;;;;;;;3.90;2.10;;;;;;;;;;5101745;28;20024;-75
2022/07/08 06:17:06;;;;;;;4.25;2.10;;;;;;;;;;5089158;28;20039;-78
2022/07/08 06:19:32;;;;;;;3.88;2.28;;;;;;;;;;5089408;28;20036;-76
2022/07/08 06:21:59;;;;;;;3.40;2.05;;;;;;;;;;5087242;28;20031;-75
2022/07/08 06:24:25;;;;;;;2.88;2.00;;;;;;;;;;5089081;28;20032;-76
2022/07/08 06:28:52;;;;;;;4.50;2.13;;;;;;;;;;5066864;28;20391;-76
2022/07/08 06:31:18;;;;;;;2.97;1.90;;;;;;;;;;5066417;28;20028;-76
2022/07/08 06:33:44;;;;;;;3.08;2.00;;;;;;;;;;5058715;28;20032;-76
2022/07/08 06:36:10;;;;;;;2.38;1.73;;;;;;;;;;5069455;28;20029;-77
2022/07/08 06:38:37;;;;;;;5.78;1.98;;;;;;;;;;5046381;28;20029;-78
2022/07/08 06:41:03;;;;;;;3.03;2.05;;;;;;;;;;5047556;28;20031;-77
2022/07/08 06:43:56;;;;;;;2.97;1.50;;;;;;;;;;5105251;27;20446;-75
2022/07/08 06:48:54;;;;;;;2.70;1.90;;;;;;;;;;5069211;28;20469;-77
2022/07/08 06:52:32;;;;;;;2.85;1.80;;;;;;;;;;5109390;27;20412;-78
2022/07/08 06:56:44;;;;;;;3.88;1.95;;;;;;;;;;5063995;28;20465;-75
2022/07/08 06:59:10;;;;;;;2.55;1.80;;;;;;;;;;5069124;28;20031;-74
2022/07/08 07:01:36;;;;;;;3.30;1.75;;;;;;;;;;5069746;28;20099;-74
2022/07/08 07:04:03;;;;;;;1.77;1.60;;;;;;;;;;5067891;28;20392;-74
2022/07/08 07:06:29;;;;;;;4.70;2.00;;;;;;;;;;5057796;28;20108;-76
2022/07/08 07:08:55;;;;;;;2.40;1.83;;;;;;;;;;5060622;28;20500;-73
2022/07/08 07:12:48;;;;;;;3.42;2.10;;;;;;;;;;5123894;27;20119;-74
2022/07/08 07:15:14;;;;;;;4.03;2.08;;;;;;;;;;5131292;28;20019;-73
2022/07/08 07:18:37;;;;;;;3.30;2.15;;;;;;;;;;5109264;27;20430;-72
2022/07/08 07:21:04;;;;;;;3.45;2.38;;;;;;;;;;5108767;28;20023;-73
2022/07/08 07:23:30;;;;;;;4.40;2.15;;;;;;;;;;5127439;28;20027;-74
2022/07/08 07:25:56;;;;;;;3.20;2.30;;;;;;;;;;5104640;28;20111;-74
2022/07/08 07:28:22;;;;;;;4.30;2.22;;;;;;;;;;5101560;28;20440;-75
2022/07/08 07:30:49;;;;;;;7.93;2.08;;;;;;;;;;5108700;28;20098;-73
2022/07/08 07:34:38;;;;;;;3.08;2.00;;;;;;;;;;5114465;27;20410;-74
2022/07/08 07:37:04;;;;;;;3.65;1.98;;;;;;;;;;5102532;28;20030;-74
2022/07/08 07:39:30;;;;;;;2.90;1.70;;;;;;;;;;5113759;27;20765;-75
2022/07/08 07:41:56;;;;;;;3.22;2.03;;;;;;;;;;5103182;28;20119;-74
2022/07/08 07:44:22;;;;;;;3.35;2.20;;;;;;;;;;5088292;28;20135;-75
2022/07/08 07:46:48;;;;;;;2.63;2.00;;;;;;;;;;5107355;28;20132;-75
2022/07/08 07:49:15;;;;;;;4.78;2.42;;;;;;;;;;5109490;28;20472;-75
2022/07/08 07:51:41;;;;;;;2.88;2.05;;;;;;;;;;5108337;28;20099;-75
2022/07/08 07:54:07;;;;;;;3.42;1.95;;;;;;;;;;5107928;28;20435;-75
2022/07/08 07:56:33;;;;;;;3.83;2.30;;;;;;;;;;5100102;28;20024;-76
2022/07/08 07:59:02;;;;;;;2.83;2.00;;;;;;;;;;5118588;27;20529;-77
2022/07/08 08:01:29;;;;;;;3.30;2.10;;;;;;;;;;5109389;28;20491;-75
2022/07/08 08:03:55;;;;;;;5.00;2.40;;;;;;;;;;5109921;28;20098;-74
2022/07/08 08:07:16;;;;;;;3.40;2.22;;;;;;;;;;5110082;27;20389;-75
2022/07/08 08:09:42;;;;;;;2.28;1.95;;;;;;;;;;5109669;28;20111;-73
2022/07/08 08:12:08;;;;;;;3.97;2.10;;;;;;;;;;5108667;28;20574;-74
2022/07/08 08:14:34;;;;;;;2.38;1.90;;;;;;;;;;5109807;28;20438;-75
2022/07/08 08:17:01;;;;;;;2.78;2.03;;;;;;;;;;5109618;28;20499;-75
2022/07/08 08:19:50;;;;;;;3.38;2.20;;;;;;;;;;5110721;27;20817;-75
2022/07/08 08:22:16;;;;;;;3.03;1.95;;;;;;;;;;5106794;28;20030;-75
2022/07/08 08:27:19;;;;;;;2.15;1.70;;;;;;;;;;5102437;27;20454;-75
2022/07/08 08:29:45;;;;;;;3.15;2.03;;;;;;;;;;5095404;28;20060;-75
2022/07/08 08:32:11;;;;;;;2.67;1.90;;;;;;;;;;5088174;28;20025;-74
2022/07/08 08:34:37;;;;;;;2.75;1.90;;;;;;;;;;5090068;28;20024;-76
2022/07/08 08:37:03;;;;;;;2.13;1.58;;;;;;;;;;5089588;28;20066;-73
2022/07/08 08:39:29;;;;;;;3.72;1.98;;;;;;;;;;5088130;28;20028;-72
2022/07/08 08:41:56;;;;;;;3.15;1.90;;;;;;;;;;5088198;28;20032;-76
2022/07/08 08:44:22;;;;;;;2.92;1.80;;;;;;;;;;5088776;28;20086;-78
2022/07/08 08:46:50;;;;;;;2.17;1.55;;;;;;;;;;5087717;28;20069;-80
2022/07/08 08:49:17;;;;;;;2.97;2.00;;;;;;;;;;5088224;28;20017;-77
2022/07/08 08:52:41;;;;;;;2.72;1.63;;;;;;;;;;5103098;27;20477;-75
2022/07/08 08:55:08;;;;;;;2.25;1.70;;;;;;;;;;5107444;28;20031;-75
2022/07/08 08:57:34;;;;;;;3.95;2.15;;;;;;;;;;5102491;28;20466;-73
2022/07/08 09:00:00;;;;;;;4.50;1.80;;;;;;;;;;5087869;28;20016;-74
2022/07/08 09:02:26;;;;;;;2.50;1.70;;;;;;;;;;5073823;28;20408;-74
2022/07/08 09:05:48;;;;;;;2.95;1.60;;;;;;;;;;5078551;27;1993584;-73
2022/07/08 09:08:14;;;;;;;1.95;1.67;;;;;;;;;;5149097;27;20092;-73
2022/07/08 09:10:40;;;;;;;2.83;1.65;;;;;;;;;;5149156;27;20050;-73
2022/07/08 09:13:08;;;;;;;3.13;1.92;;;;;;;;;;5147803;27;20058;-71
2022/07/08 09:15:38;;;;;;;6.40;2.38;;;;;;;;;;5146456;27;20076;-76
2022/07/08 09:18:05;;;;;;;2.15;1.52;;;;;;;;;;5150546;27;20023;-73
2022/07/08 09:20:38;;;;;;;4.80;2.17;;;;;;;;;;5150975;27;20428;-74
2022/07/08 09:23:04;;;;;;;2.65;1.70;;;;;;;;;;5148161;27;20023;-74
2022/07/08 09:27:12;;;;;;;2.60;1.52;;;;;;;;;;5110558;27;20225;-72
2022/07/08 09:30:01;;;;;;;4.95;1.88;;;;;;;;;;5102146;28;20439;-73
2022/07/08 09:32:27;;;;;;;3.55;1.73;;;;;;;;;;5096246;28;20381;-72
2022/07/08 09:34:54;;;;;;;3.42;1.60;;;;;;;;;;5106332;28;20024;-74
2022/07/08 09:37:21;;;;;;;4.22;3.10;;;;;;;;;;5089843;28;20093;-76
2022/07/08 09:39:47;;;;;;;4.00;1.85;;;;;;;;;;5102528;28;20813;-74
2022/07/08 09:42:14;;;;;;;2.70;1.80;;;;;;;;;;5090567;28;20036;-74
2022/07/08 09:44:41;;;;;;;2.88;1.52;;;;;;;;;;5101993;28;20499;-71
2022/07/08 09:47:14;;;;;;;2.33;1.30;;;;;;;;;;5084763;28;20077;-74
2022/07/08 09:49:41;;;;;;;1.98;1.20;;;;;;;;;;5092019;28;20543;-73
2022/07/08 09:52:08;;;;;;;2.08;1.20;;;;;;;;;;5089065;28;20082;-73
2022/07/08 09:54:35;;;;;;;1.42;1.10;;;;;;;;;;5088322;28;20051;-73
2022/07/08 09:57:01;;;;;;;1.58;1.17;;;;;;;;;;5096515;28;20063;-73
2022/07/08 09:59:31;;;;;;;2.58;1.52;;;;;;;;;;5096750;28;20059;-74
2022/07/08 10:01:58;;;;;;;1.88;1.23;;;;;;;;;;5091961;28;20078;-74
2022/07/08 10:04:24;;;;;;;2.03;1.60;;;;;;;;;;5093085;28;20434;-74
2022/07/08 10:06:51;;;;;;;2.35;1.30;;;;;;;;;;5091099;28;20036;-75
2022/07/08 10:09:17;;;;;;;4.30;1.33;;;;;;;;;;5087475;28;20052;-74
2022/07/08 10:11:44;;;;;;;2.25;1.30;;;;;;;;;;5104089;28;20063;-72
2022/07/08 10:14:10;;;;;;;3.20;1.75;;;;;;;;;;5100781;28;20024;-76
2022/07/08 10:16:39;;;;;;;2.03;1.35;;;;;;;;;;5086564;28;20031;-75
2022/07/08 10:19:11;;;;;;;3.17;1.30;;;;;;;;;;5090054;28;20028;-75
2022/07/08 10:21:39;;;;;;;3.78;1.30;;;;;;;;;;5085618;28;20461;-74
2022/07/08 10:24:07;;;;;;;1.50;1.30;;;;;;;;;;5087667;28;20020;-73
2022/07/08 10:26:38;;;;;;;2.45;1.45;;;;;;;;;;5086370;28;20055;-76
2022/07/08 10:29:08;;;;;;;2.20;1.20;;;;;;;;;;5096459;28;20479;-77
2022/07/08 10:31:51;;;;;;;2.33;1.10;;;;;;;;;;5106673;28;20097;-76
2022/07/08 10:34:30;;;;;;;2.15;1.00;;;;;;;;;;5091966;28;20539;-76
2022/07/08 10:36:56;;;;;;;1.17;1.08;;;;;;;;;;5089996;28;20028;-73
2022/07/08 10:39:28;;;;;;;1.77;1.20;;;;;;;;;;5074262;28;20099;-74
2022/07/08 10:42:01;;;;;;;1.67;1.20;;;;;;;;;;5080134;28;20028;-73
2022/07/08 10:44:39;;;;;;;1.98;1.20;;;;;;;;;;5076874;28;20119;-73
2022/07/08 10:47:09;;;;;;;1.35;1.20;;;;;;;;;;5090771;28;20031;-71
2022/07/08 10:49:42;;;;;;;1.52;1.25;;;;;;;;;;5081146;28;20110;-72
2022/07/08 10:52:07;;;;;;;;;;;;;;;;;;5080048;28;20044;-71
2022/07/08 10:54:37;;;;;;;1.40;1.27;;;;;;;;;;5074414;28;19912;-75
2022/07/08 10:57:07;;;;;;;1.73;1.10;;;;;;;;;;5073891;28;20107;-73
2022/07/08 10:59:35;;;;;;;3.80;1.30;;;;;;;;;;5074231;28;20025;-73
2022/07/08 11:02:11;;;;;;;1.85;1.20;;;;;;;;;;5075589;28;20073;-72
2022/07/08 11:04:40;;;;;;;1.75;1.10;;;;;;;;;;5092267;28;20031;-72
2022/07/08 11:07:15;;;;;;;2.50;1.45;;;;;;;;;;5074158;28;20032;-72
2022/07/08 11:09:42;;;;;;;2.03;1.30;;;;;;;;;;5075423;28;20016;-72
2022/07/08 11:12:15;;;;;;;1.23;1.10;;;;;;;;;;5075015;28;20104;-72
2022/07/08 11:14:43;;;;;;;1.92;1.20;;;;;;;;;;5074081;28;20028;-72
2022/07/08 11:17:15;;;;;;;1.17;1.05;;;;;;;;;;5075357;28;20491;-72
2022/07/08 11:19:41;;;;;;;;;;;;;;;;;;5075323;28;20381;-71
2022/07/08 11:22:09;;;;;;;1.63;1.17;;;;;;;;;;5082204;28;19943;-71
2022/07/08 11:24:36;;;;;;;2.42;1.38;;;;;;;;;;5094252;28;20059;-73
2022/07/08 11:27:03;;;;;;;3.28;1.50;;;;;;;;;;5110685;28;20065;-73
2022/07/08 11:29:29;;;;;;;2.20;1.33;;;;;;;;;;5095729;28;20024;-72
2022/07/08 11:32:03;;;;;;;1.98;1.13;;;;;;;;;;5096485;28;20110;-71
2022/07/08 11:34:29;;;;;;;1.75;1.40;;;;;;;;;;5115647;28;20024;-71
2022/07/08 11:37:02;;;;;;;2.20;1.48;;;;;;;;;;5097196;28;20044;-72
2022/07/08 11:39:28;;;;;;;2.17;1.40;;;;;;;;;;5096725;28;20072;-72
2022/07/08 11:41:55;;;;;;;1.92;1.13;;;;;;;;;;5107658;28;20110;-71
2022/07/08 11:44:22;;;;;;;1.75;1.40;;;;;;;;;;5108463;28;20028;-71
2022/07/08 11:46:49;;;;;;;2.30;1.50;;;;;;;;;;5092483;28;20032;-71
2022/07/08 11:49:16;;;;;;;2.15;1.45;;;;;;;;;;5091880;28;20020;-71
2022/07/08 11:51:48;;;;;;;2.00;1.17;;;;;;;;;;5101462;28;20030;-72
2022/07/08 11:54:15;;;;;;;2.28;1.58;;;;;;;;;;5111902;28;20019;-70
2022/07/08 11:56:41;;;;;;;2.63;1.70;;;;;;;;;;5101766;28;20099;-71
2022/07/08 11:59:08;;;;;;;3.00;1.30;;;;;;;;;;5109805;28;20111;-71
2022/07/08 12:01:35;;;;;;;2.92;1.90;;;;;;;;;;5073990;28;20496;-71
2022/07/08 12:04:05;;;;;;;2.03;1.20;;;;;;;;;;5092575;28;20016;-72
2022/07/08 12:06:31;;;;;;;1.65;1.38;;;;;;;;;;5101290;28;20484;-71
2022/07/08 12:08:57;;;;;;;1.98;1.20;;;;;;;;;;5091405;28;20031;-71
2022/07/08 12:11:25;;;;;;;2.65;1.55;;;;;;;;;;5088852;28;20464;-71
2022/07/08 12:13:52;;;;;;;2.28;1.45;;;;;;;;;;5112772;28;20102;-71
2022/07/08 12:16:28;;;;;;;2.35;1.40;;;;;;;;;;5111653;28;20018;-72
2022/07/08 12:18:54;;;;;;;2.28;1.48;;;;;;;;;;5112951;28;20400;-72
2022/07/08 12:21:21;;;;;;;2.22;1.17;;;;;;;;;;5106931;28;20447;-72
2022/07/08 12:23:57;;;;;;;2.13;1.55;;;;;;;;;;5092834;28;20038;-72
2022/07/08 12:26:24;;;;;;;1.90;1.30;;;;;;;;;;5092594;28;20063;-73
2022/07/08 12:28:50;;;;;;;1.05;0.95;;;;;;;;;;5093458;28;20028;-74
2022/07/08 12:31:35;;;;;;;2.10;1.38;;;;;;;;;;5075880;28;20024;-72
2022/07/08 12:34:02;;;;;;;2.47;1.38;;;;;;;;;;5073130;28;20370;-73
2022/07/08 12:36:28;;;;;;;1.52;1.10;;;;;;;;;;5102920;28;20472;-74
2022/07/08 12:38:55;;;;;;;2.83;1.55;;;;;;;;;;5094498;28;20031;-78
2022/07/08 12:41:21;;;;;;;1.88;1.35;;;;;;;;;;5110353;28;20491;-73
2022/07/08 12:43:47;;;;;;;2.85;1.40;;;;;;;;;;5114005;28;20031;-75
2022/07/08 12:46:13;;;;;;;2.42;1.50;;;;;;;;;;5114107;28;20031;-75
2022/07/08 12:48:40;;;;;;;3.53;1.48;;;;;;;;;;5111760;28;20024;-77
2022/07/08 12:51:07;;;;;;;2.47;1.27;;;;;;;;;;5102572;28;20074;-75
2022/07/08 12:53:34;;;;;;;1.98;1.20;;;;;;;;;;5106334;28;20084;-76
2022/07/08 12:56:00;;;;;;;1.60;1.20;;;;;;;;;;5088604;28;20024;-76
2022/07/08 12:58:26;;;;;;;2.13;1.38;;;;;;;;;;5113451;28;20091;-78
2022/07/08 13:00:52;;;;;;;1.58;1.20;;;;;;;;;;5114046;28;20042;-77
2022/07/08 13:03:18;;;;;;;3.30;1.58;;;;;;;;;;5113965;28;20019;-75
2022/07/08 13:05:44;;;;;;;1.92;1.30;;;;;;;;;;5113643;28;20042;-76
2022/07/08 13:08:11;;;;;;;1.95;1.30;;;;;;;;;;5113638;28;20024;-76
2022/07/08 13:10:37;;;;;;;3.47;1.50;;;;;;;;;;5113481;28;20027;-75
2022/07/08 13:13:06;;;;;;;3.65;1.58;;;;;;;;;;5107032;28;20042;-74
2022/07/08 13:15:36;;;;;;;2.10;1.52;;;;;;;;;;5093332;28;20043;-76
2022/07/08 13:18:02;;;;;;;2.85;1.55;;;;;;;;;;5093243;28;20024;-75
2022/07/08 13:20:28;;;;;;;1.65;1.17;;;;;;;;;;5108491;28;20540;-71
2022/07/08 13:22:54;;;;;;;1.73;1.27;;;;;;;;;;5095068;28;20067;-71
2022/07/08 13:25:20;;;;;;;1.30;1.08;;;;;;;;;;5112089;28;20526;-71
2022/07/08 13:27:46;;;;;;;2.08;1.48;;;;;;;;;;5113300;28;20034;-71
2022/07/08 13:30:13;;;;;;;3.88;1.40;;;;;;;;;;5112246;28;20024;-71
2022/07/08 13:32:39;;;;;;;1.95;1.20;;;;;;;;;;5112061;28;20020;-72
2022/07/08 13:35:05;;;;;;;2.00;1.20;;;;;;;;;;5094238;28;20077;-71
2022/07/08 13:37:31;;;;;;;1.83;1.35;;;;;;;;;;5112660;28;20402;-72
2022/07/08 13:39:58;;;;;;;4.22;2.60;;;;;;;;;;5093757;28;20020;-73
2022/07/08 13:42:24;;;;;;;5.10;3.17;;;;;;;;;;5113051;28;20069;-72
2022/07/08 13:44:50;;;;;;;5.20;3.92;;;;;;;;;;5113046;28;20027;-71
2022/07/08 13:47:16;;;;;;;6.45;3.95;;;;;;;;;;5113275;28;20028;-71
2022/07/08 13:49:42;;;;;;;7.30;4.45;;;;;;;;;;5113614;28;20424;-71
2022/07/08 13:52:08;;;;;;;7.30;4.18;;;;;;;;;;5095265;28;20408;-70
2022/07/08 13:54:35;;;;;;;8.07;4.68;;;;;;;;;;5113129;28;20368;-71
2022/07/08 13:57:02;;;;;;;7.90;4.68;;;;;;;;;;5113434;28;20027;-71
2022/07/08 13:59:28;;;;;;;6.57;4.32;;;;;;;;;;5113440;28;20024;-71
2022/07/08 14:01:54;;;;;;;6.53;4.55;;;;;;;;;;5094885;28;20430;-72
2022/07/08 14:04:20;;;;;;;9.90;4.45;;;;;;;;;;5113452;28;20087;-72
2022/07/08 14:06:46;;;;;;;6.47;4.20;;;;;;;;;;5094742;28;20035;-71
2022/07/08 14:09:13;;;;;;;5.82;3.60;;;;;;;;;;5113446;28;20066;-72
2022/07/08 14:11:59;;;;;;;7.35;4.38;;;;;;;;;;5111427;27;20939;-71
2022/07/08 14:14:25;;;;;;;6.70;3.85;;;;;;;;;;5110843;28;20032;-70
2022/07/08 14:16:51;;;;;;;7.82;4.10;;;;;;;;;;5111132;28;20027;-70
2022/07/08 14:19:18;;;;;;;7.07;3.92;;;;;;;;;;5126965;28;20506;-69
2022/07/08 14:21:44;;;;;;;8.50;4.15;;;;;;;;;;5126496;28;20407;-71
2022/07/08 14:24:10;;;;;;;6.30;4.63;;;;;;;;;;5126912;28;20020;-70
2022/07/08 14:26:36;;;;;;;6.03;4.40;;;;;;;;;;5111003;28;20028;-70
2022/07/08 14:29:02;;;;;;;9.32;4.88;;;;;;;;;;5110453;28;20035;-70
2022/07/08 14:31:29;;;;;;;7.60;4.85;;;;;;;;;;5110803;28;20042;-70
2022/07/08 14:33:55;;;;;;;7.10;5.13;;;;;;;;;;5110851;28;20023;-70
2022/07/08 14:36:21;;;;;;;14.10;4.82;;;;;;;;;;5110302;28;20031;-70
2022/07/08 14:38:47;;;;;;;10.05;5.03;;;;;;;;;;5110865;28;20028;-70
2022/07/08 14:41:13;;;;;;;7.90;4.82;;;;;;;;;;5110719;28;20471;-70
2022/07/08 14:43:39;;;;;;;11.18;5.15;;;;;;;;;;5110312;28;20027;-70
2022/07/08 14:47:15;;;;;;;7.10;4.00;;;;;;;;;;5111358;27;20956;-69
2022/07/08 14:50:00;;;;;;;8.50;4.95;;;;;;;;;;5110972;27;20431;-70
2022/07/08 14:52:26;;;;;;;8.60;4.65;;;;;;;;;;5111258;28;20026;-70
2022/07/08 14:54:53;;;;;;;9.73;5.82;;;;;;;;;;5127019;28;20027;-71
2022/07/08 14:58:47;;;;;;;9.23;5.75;;;;;;;;;;5111232;27;20306;-70
2022/07/08 15:01:13;;;;;;;8.07;6.03;;;;;;;;;;5111146;28;20036;-70
2022/07/08 15:05:23;;;;;;;9.07;6.30;;;;;;;;;;5111322;27;20388;-69
2022/07/08 15:11:44;;;;;;;9.80;5.18;;;;;;;;;;5111164;27;20401;-69
2022/07/08 15:14:10;;;;;;;7.53;4.82;;;;;;;;;;5111284;28;20020;-71
2022/07/08 15:16:36;;;;;;;7.85;4.65;;;;;;;;;;5111099;28;20464;-70
2022/07/08 15:19:03;;;;;;;7.28;4.32;;;;;;;;;;5110797;28;20050;-71
2022/07/08 15:21:29;;;;;;;7.25;4.40;;;;;;;;;;5111076;28;20487;-71
2022/07/08 15:23:55;;;;;;;6.82;4.88;;;;;;;;;;5111009;28;20433;-71
2022/07/08 15:26:21;;;;;;;7.43;4.72;;;;;;;;;;5110607;28;20051;-69
2022/07/08 15:28:47;;;;;;;7.90;5.00;;;;;;;;;;5110965;28;20035;-70
2022/07/08 15:31:14;;;;;;;8.73;4.47;;;;;;;;;;5110410;28;20032;-71
2022/07/08 15:33:41;;;;;;;6.95;4.38;;;;;;;;;;5109605;28;20543;-69
2022/07/08 15:36:09;;;;;;;8.93;4.55;;;;;;;;;;5109502;28;20020;-70
2022/07/08 15:40:22;;;;;;;8.05;4.40;;;;;;;;;;5110679;27;20404;-72
2022/07/08 15:43:07;;;;;;;7.63;3.90;;;;;;;;;;5111141;27;20511;-71
2022/07/08 15:47:13;;;;;;;8.27;4.32;;;;;;;;;;5110832;27;20490;-71
2022/07/08 15:49:40;;;;;;;11.98;5.22;;;;;;;;;;5110036;28;20032;-72
2022/07/08 15:52:06;;;;;;;8.20;4.72;;;;;;;;;;5111274;28;20030;-71
2022/07/08 15:54:32;;;;;;;8.25;4.43;;;;;;;;;;5110793;28;20186;-70
2022/07/08 16:02:52;;;;;;;7.72;5.05;;;;;;;;;;5111352;27;20416;-70
2022/07/08 16:05:18;;;;;;;7.15;5.38;;;;;;;;;;5111206;28;20024;-72
2022/07/08 16:07:44;;;;;;;10.75;6.40;;;;;;;;;;5110858;28;20503;-71
2022/07/08 16:11:22;;;;;;;9.35;5.30;;;;;;;;;;5111306;27;20450;-69
2022/07/08 16:13:48;;;;;;;8.60;5.20;;;;;;;;;;5109496;28;20028;-70
2022/07/08 16:16:14;;;;;;;7.00;4.63;;;;;;;;;;5110925;28;20024;-70
2022/07/08 16:18:40;;;;;;;7.38;4.55;;;;;;;;;;5111174;28;20066;-70
2022/07/08 16:23:15;;;;;;;9.85;5.53;;;;;;;;;;5111306;27;20389;-69
2022/07/08 16:25:41;;;;;;;6.30;4.32;;;;;;;;;;5109952;28;20024;-70
2022/07/08 16:28:22;;;;;;;8.05;4.80;;;;;;;;;;5101998;27;1519874;-69
2022/07/08 16:34:11;;;;;;;8.05;4.78;;;;;;;;;;5111279;27;20485;-71
2022/07/08 16:36:38;;;;;;;7.50;4.68;;;;;;;;;;5111038;28;20022;-71
2022/07/08 16:40:41;;;;;;;6.85;5.25;;;;;;;;;;5111686;27;20500;-72
2022/07/08 16:43:07;;;;;;;6.80;4.68;;;;;;;;;;5110889;28;20028;-71
2022/07/08 16:45:59;;;;;;;8.35;5.20;;;;;;;;;;5111475;27;20385;-71
2022/07/08 16:48:25;;;;;;;8.52;6.38;;;;;;;;;;5111286;28;20031;-72